Time,TemperatureF,DewpointF,PressureIn,WindDirection,WindDirectionDegrees,WindSpeedMPH,WindSpeedGustMPH,Humidity,HourlyPrecipIn,Conditions,Clouds,dailyrainin,SoftwareType,DateUTC
2013-03-02 00:01:00,30.0,26.0,30.10,NNE,33,5.0,8.0,84,0.00,,,0.01,,2013-03-02 05:01:00,
2013-03-02 00:12:00,30.0,26.0,30.10,NNE,33,5.0,8.0,84,0.00,,,0.01,,2013-03-02 05:12:00,
2013-03-02 00:22:00,30.0,26.0,30.10,East,92,4.0,9.0,85,0.00,,,0.01,,2013-03-02 05:22:00,
2013-03-02 00:32:00,30.0,26.0,30.10,NE,45,4.0,14.0,84,0.00,,,0.01,,2013-03-02 05:32:00,
2013-03-02 00:41:00,30.0,26.0,30.10,NE,45,4.0,14.0,84,0.00,,,0.01,,2013-03-02 05:41:00,
2013-03-02 00:52:00,30.0,26.0,30.10,NNE,26,4.0,10.0,85,0.00,,,0.01,,2013-03-02 05:52:00,
2013-03-02 01:01:00,30.0,26.0,30.10,ENE,63,4.0,11.0,85,0.00,,,0.01,,2013-03-02 06:01:00,
2013-03-02 01:11:00,30.0,26.0,30.10,ENE,63,4.0,11.0,85,0.00,,,0.01,,2013-03-02 06:11:00,
2013-03-02 01:21:00,30.0,26.0,30.10,East,80,4.0,7.0,85,0.00,,,0.01,,2013-03-02 06:21:00,
2013-03-02 01:31:00,30.0,26.0,30.10,NE,46,1.0,10.0,85,0.00,,,0.01,,2013-03-02 06:31:00,
2013-03-02 01:41:00,30.0,26.0,30.10,NE,46,1.0,10.0,85,0.00,,,0.01,,2013-03-02 06:41:00,
2013-03-02 01:52:00,30.0,26.0,30.10,NE,34,1.0,6.0,85,0.00,,,0.01,,2013-03-02 06:52:00,
2013-03-02 02:01:00,30.0,26.0,30.10,ESE,115,1.0,5.0,85,0.00,,,0.01,,2013-03-02 07:01:00,
2013-03-02 02:11:00,30.0,26.0,30.10,East,98,1.0,7.0,85,0.00,,,0.01,,2013-03-02 07:11:00,
2013-03-02 02:21:00,30.0,26.0,30.10,East,98,1.0,7.0,85,0.00,,,0.01,,2013-03-02 07:21:00,
2013-03-02 02:32:00,30.0,26.0,30.10,NE,41,3.0,5.0,84,0.00,,,0.01,,2013-03-02 07:32:00,
2013-03-02 02:42:00,30.0,26.0,30.10,NE,41,3.0,5.0,84,0.00,,,0.01,,2013-03-02 07:42:00,
2013-03-02 02:52:00,30.0,26.0,30.10,NE,45,2.0,8.0,84,0.00,,,0.01,,2013-03-02 07:52:00,
2013-03-02 03:01:00,30.0,25.0,30.10,NNE,30,2.0,8.0,82,0.00,,,0.01,,2013-03-02 08:01:00,
2013-03-02 03:11:00,30.0,25.0,30.10,NNE,30,2.0,8.0,82,0.00,,,0.01,,2013-03-02 08:11:00,
2013-03-02 03:21:00,30.0,25.0,30.09,ENE,60,2.0,7.0,80,0.00,,,0.01,,2013-03-02 08:21:00,
2013-03-02 03:32:00,29.0,22.0,30.09,ENE,59,2.0,7.0,76,0.00,,,0.01,,2013-03-02 08:32:00,
2013-03-02 03:42:00,29.0,22.0,30.09,ENE,59,2.0,7.0,76,0.00,,,0.01,,2013-03-02 08:42:00,
2013-03-02 03:52:00,29.0,22.0,30.09,NE,42,2.0,8.0,75,0.00,,,0.01,,2013-03-02 08:52:00,
2013-03-02 04:01:00,30.0,23.0,30.09,East,92,1.0,6.0,75,0.00,,,0.01,,2013-03-02 09:01:00,
2013-03-02 04:11:00,29.0,23.0,30.09,NNE,18,2.0,4.0,78,0.00,,,0.01,,2013-03-02 09:11:00,
2013-03-02 04:21:00,29.0,23.0,30.09,NNE,18,2.0,4.0,78,0.00,,,0.01,,2013-03-02 09:21:00,
2013-03-02 04:31:00,29.0,24.0,30.09,ENE,78,2.0,8.0,81,0.00,,,0.01,,2013-03-02 09:31:00,
2013-03-02 04:42:00,29.0,24.0,30.09,ENE,78,2.0,8.0,81,0.00,,,0.01,,2013-03-02 09:42:00,
2013-03-02 04:52:00,29.0,25.0,30.09,East,86,3.0,6.0,83,0.00,,,0.01,,2013-03-02 09:52:00,
2013-03-02 05:01:00,29.0,25.0,30.09,East,90,1.0,5.0,83,0.00,,,0.01,,2013-03-02 10:01:00,
2013-03-02 05:15:00,29.0,25.0,30.09,East,90,1.0,5.0,83,0.00,,,0.01,,2013-03-02 10:15:00,
2013-03-02 05:22:00,28.0,23.0,30.09,East,92,3.0,9.0,81,0.00,,,0.01,,2013-03-02 10:22:00,
2013-03-02 05:31:00,28.0,22.0,30.09,North,360,4.0,9.0,79,0.00,,,0.01,,2013-03-02 10:31:00,
2013-03-02 05:42:00,28.0,22.0,30.09,North,360,4.0,9.0,79,0.00,,,0.01,,2013-03-02 10:42:00,
2013-03-02 05:52:00,28.0,22.0,30.09,NE,51,2.0,8.0,79,0.00,,,0.01,,2013-03-02 10:52:00,
2013-03-02 06:01:00,28.0,22.0,30.09,NNE,27,2.0,6.0,79,0.00,,,0.01,,2013-03-02 11:01:00,
2013-03-02 06:11:00,28.0,22.0,30.09,NNE,27,2.0,6.0,79,0.00,,,0.01,,2013-03-02 11:11:00,
2013-03-02 06:21:00,28.0,22.0,30.09,NE,50,2.0,8.0,78,0.00,,,0.01,,2013-03-02 11:21:00,
2013-03-02 06:32:00,28.0,23.0,30.10,ESE,105,0.0,3.0,80,0.00,,,0.01,,2013-03-02 11:32:00,
2013-03-02 06:42:00,28.0,23.0,30.10,ESE,105,0.0,3.0,80,0.00,,,0.01,,2013-03-02 11:42:00,
2013-03-02 06:52:00,28.0,23.0,30.09,NE,55,2.0,6.0,80,0.00,,,0.01,,2013-03-02 11:52:00,
2013-03-02 07:02:00,27.0,21.0,30.09,East,87,1.0,3.0,79,0.00,,,0.01,,2013-03-02 12:02:00,
2013-03-02 07:11:00,27.0,21.0,30.09,East,87,1.0,3.0,79,0.00,,,0.01,,2013-03-02 12:11:00,
2013-03-02 07:21:00,27.0,21.0,30.10,East,86,1.0,3.0,79,0.00,,,0.01,,2013-03-02 12:21:00,
2013-03-02 07:32:00,27.0,21.0,30.10,NE,49,1.0,3.0,79,0.00,,,0.01,,2013-03-02 12:32:00,
2013-03-02 07:43:00,27.0,21.0,30.10,NE,49,1.0,3.0,79,0.00,,,0.01,,2013-03-02 12:43:00,
2013-03-02 07:53:00,27.0,21.0,30.10,ENE,58,0.0,3.0,79,0.00,,,0.01,,2013-03-02 12:53:00,
2013-03-02 08:01:00,28.0,23.0,30.11,NE,36,1.0,3.0,80,0.00,,,0.01,,2013-03-02 13:01:00,
2013-03-02 08:11:00,28.0,23.0,30.11,NE,36,1.0,3.0,80,0.00,,,0.01,,2013-03-02 13:11:00,
2013-03-02 08:21:00,28.0,22.0,30.11,NNE,20,3.0,5.0,79,0.00,,,0.01,,2013-03-02 13:21:00,
2013-03-02 08:31:00,28.0,22.0,30.12,NE,45,0.0,6.0,79,0.00,,,0.01,,2013-03-02 13:31:00,
2013-03-02 08:41:00,28.0,22.0,30.12,NE,45,0.0,6.0,79,0.00,,,0.01,,2013-03-02 13:41:00,
2013-03-02 08:52:00,28.0,23.0,30.12,NNE,32,3.0,6.0,80,0.00,,,0.01,,2013-03-02 13:52:00,
2013-03-02 09:01:00,28.0,23.0,30.12,NNE,22,0.0,4.0,80,0.00,,,0.01,,2013-03-02 14:01:00,
2013-03-02 09:11:00,28.0,23.0,30.12,NNE,22,0.0,4.0,80,0.00,,,0.01,,2013-03-02 14:11:00,
2013-03-02 09:21:00,28.0,22.0,30.12,NE,54,1.0,6.0,79,0.00,,,0.01,,2013-03-02 14:21:00,
2013-03-02 09:32:00,29.0,24.0,30.12,NNE,13,3.0,7.0,80,0.00,,,0.01,,2013-03-02 14:32:00,
2013-03-02 09:42:00,29.0,24.0,30.12,NNE,13,3.0,7.0,80,0.00,,,0.01,,2013-03-02 14:42:00,
2013-03-02 09:52:00,29.0,24.0,30.13,NE,39,2.0,7.0,80,0.00,,,0.01,,2013-03-02 14:52:00,
2013-03-02 10:02:00,29.0,24.0,30.13,NE,46,4.0,7.0,82,0.00,,,0.01,,2013-03-02 15:02:00,
2013-03-02 10:11:00,29.0,24.0,30.13,NE,46,4.0,7.0,82,0.00,,,0.01,,2013-03-02 15:11:00,
2013-03-02 10:21:00,29.0,25.0,30.13,NNE,28,4.0,10.0,84,0.00,,,0.01,,2013-03-02 15:21:00,
2013-03-02 10:31:00,29.0,25.0,30.13,NE,53,3.0,7.0,86,0.00,,,0.01,,2013-03-02 15:31:00,
2013-03-02 10:42:00,29.0,25.0,30.13,NE,53,3.0,7.0,86,0.00,,,0.01,,2013-03-02 15:42:00,
2013-03-02 10:52:00,29.0,26.0,30.13,North,11,1.0,6.0,88,0.00,,,0.01,,2013-03-02 15:52:00,
2013-03-02 11:01:00,29.0,26.0,30.13,NE,43,3.0,9.0,88,0.00,,,0.01,,2013-03-02 16:01:00,
2013-03-02 11:11:00,29.0,26.0,30.13,NE,43,3.0,9.0,88,0.00,,,0.01,,2013-03-02 16:11:00,
2013-03-02 11:21:00,29.0,26.0,30.13,NNE,30,5.0,11.0,88,0.00,,,0.01,,2013-03-02 16:21:00,
2013-03-02 11:31:00,29.0,25.0,30.13,ENE,67,6.0,12.0,86,0.00,,,0.01,,2013-03-02 16:31:00,
2013-03-02 11:41:00,29.0,25.0,30.13,ENE,67,6.0,12.0,86,0.00,,,0.01,,2013-03-02 16:41:00,
2013-03-02 11:52:00,30.0,25.0,30.13,NE,36,3.0,9.0,81,0.00,,,0.01,,2013-03-02 16:52:00,
2013-03-02 12:01:00,30.0,24.0,30.13,SE,134,4.0,10.0,77,0.00,,,0.01,,2013-03-02 17:01:00,
2013-03-02 12:11:00,30.0,23.0,30.13,NNE,32,3.0,11.0,76,0.00,,,0.01,,2013-03-02 17:11:00,
2013-03-02 12:21:00,30.0,23.0,30.13,NNE,32,3.0,11.0,76,0.00,,,0.01,,2013-03-02 17:21:00,
2013-03-02 12:32:00,30.0,24.0,30.13,NW,312,3.0,10.0,77,0.00,,,0.01,,2013-03-02 17:32:00,
2013-03-02 12:42:00,30.0,24.0,30.13,NW,312,3.0,10.0,77,0.00,,,0.01,,2013-03-02 17:42:00,
2013-03-02 12:52:00,31.0,25.0,30.13,NE,38,4.0,12.0,78,0.00,,,0.01,,2013-03-02 17:52:00,
2013-03-02 13:01:00,31.0,25.0,30.12,NNE,21,4.0,10.0,78,0.00,,,0.01,,2013-03-02 18:01:00,
2013-03-02 13:11:00,31.0,25.0,30.12,NNE,21,4.0,10.0,78,0.00,,,0.01,,2013-03-02 18:11:00,
2013-03-02 13:22:00,32.0,26.0,30.12,ENE,57,3.0,12.0,77,0.00,,,0.01,,2013-03-02 18:22:00,
2013-03-02 13:32:00,32.0,26.0,30.11,NNE,25,5.0,9.0,77,0.00,,,0.01,,2013-03-02 18:32:00,
2013-03-02 13:42:00,32.0,26.0,30.11,NNE,25,5.0,9.0,77,0.00,,,0.01,,2013-03-02 18:42:00,
2013-03-02 13:52:00,32.0,25.0,30.11,NE,46,5.0,10.0,76,0.00,,,0.01,,2013-03-02 18:52:00,
2013-03-02 14:01:00,32.0,25.0,30.10,NNE,28,6.0,9.0,74,0.00,,,0.01,,2013-03-02 19:01:00,
2013-03-02 14:11:00,32.0,25.0,30.10,NNE,28,6.0,9.0,74,0.00,,,0.01,,2013-03-02 19:11:00,
2013-03-02 14:21:00,32.0,26.0,30.10,East,87,2.0,10.0,77,0.00,,,0.01,,2013-03-02 19:21:00,
2013-03-02 14:32:00,32.0,27.0,30.10,NE,44,1.0,4.0,81,0.00,,,0.01,,2013-03-02 19:32:00,
2013-03-02 14:42:00,32.0,27.0,30.10,NE,44,1.0,4.0,81,0.00,,,0.01,,2013-03-02 19:42:00,
2013-03-02 14:52:00,32.0,26.0,30.10,North,9,4.0,9.0,77,0.00,,,0.01,,2013-03-02 19:52:00,
2013-03-02 15:01:00,31.0,27.0,30.10,NNE,14,2.0,10.0,84,0.00,,,0.01,,2013-03-02 20:01:00,
2013-03-02 15:11:00,31.0,27.0,30.10,NNE,14,2.0,10.0,84,0.00,,,0.01,,2013-03-02 20:11:00,
2013-03-02 15:22:00,31.0,27.0,30.10,NNE,14,3.0,7.0,86,0.00,,,0.01,,2013-03-02 20:22:00,
2013-03-02 15:32:00,31.0,28.0,30.09,North,11,2.0,8.0,88,0.00,,,0.00,,2013-03-02 20:32:00,
2013-03-02 15:42:00,31.0,28.0,30.09,North,11,2.0,8.0,88,0.00,,,0.00,,2013-03-02 20:42:00,
2013-03-02 15:52:00,31.0,28.0,30.10,NNE,18,4.0,11.0,87,0.00,,,0.00,,2013-03-02 20:52:00,
2013-03-02 16:02:00,32.0,28.0,30.10,NNE,20,5.0,10.0,86,0.00,,,0.00,,2013-03-02 21:02:00,
2013-03-02 16:11:00,32.0,28.0,30.10,NNE,20,5.0,10.0,86,0.00,,,0.00,,2013-03-02 21:11:00,
2013-03-02 16:22:00,32.0,28.0,30.10,NNE,28,7.0,12.0,86,0.00,,,0.00,,2013-03-02 21:22:00,
2013-03-02 16:32:00,32.0,27.0,30.10,NNE,24,7.0,14.0,83,0.00,,,0.00,,2013-03-02 21:32:00,
2013-03-02 16:42:00,32.0,27.0,30.10,NNE,24,7.0,14.0,83,0.00,,,0.00,,2013-03-02 21:42:00,
2013-03-02 16:52:00,31.0,27.0,30.10,North,9,4.0,9.0,85,0.00,,,0.00,,2013-03-02 21:52:00,
2013-03-02 17:01:00,31.0,27.0,30.10,North,355,6.0,10.0,85,0.00,,,0.00,,2013-03-02 22:01:00,
2013-03-02 17:11:00,31.0,27.0,30.10,North,355,6.0,10.0,85,0.00,,,0.00,,2013-03-02 22:11:00,
2013-03-02 17:21:00,32.0,28.0,30.10,North,355,4.0,11.0,84,0.00,,,0.00,,2013-03-02 22:21:00,
2013-03-02 17:32:00,31.0,27.0,30.11,North,9,6.0,13.0,84,0.00,,,0.00,,2013-03-02 22:32:00,
2013-03-02 17:42:00,31.0,27.0,30.11,North,9,6.0,13.0,84,0.00,,,0.00,,2013-03-02 22:42:00,
2013-03-02 17:52:00,31.0,26.0,30.11,NE,54,5.0,15.0,83,0.00,,,0.00,,2013-03-02 22:52:00,
2013-03-02 18:01:00,31.0,27.0,30.11,NNE,23,6.0,14.0,84,0.00,,,0.00,,2013-03-02 23:01:00,
2013-03-02 18:11:00,30.0,26.0,30.11,NNE,26,4.0,13.0,85,0.00,,,0.00,,2013-03-02 23:11:00,
2013-03-02 18:21:00,30.0,26.0,30.11,NNE,26,4.0,13.0,85,0.00,,,0.00,,2013-03-02 23:21:00,
2013-03-02 18:32:00,30.0,26.0,30.11,NE,43,4.0,12.0,84,0.00,,,0.00,,2013-03-02 23:32:00,
2013-03-02 18:42:00,30.0,26.0,30.11,NE,43,4.0,12.0,84,0.00,,,0.00,,2013-03-02 23:42:00,
2013-03-02 18:52:00,30.0,26.0,30.12,NNE,12,5.0,9.0,85,0.00,,,0.00,,2013-03-02 23:52:00,
2013-03-02 19:02:00,30.0,27.0,30.12,NNE,27,2.0,8.0,87,0.00,,,0.00,,2013-03-03 00:02:00,
2013-03-02 19:11:00,30.0,27.0,30.12,NNE,27,2.0,8.0,87,0.00,,,0.00,,2013-03-03 00:11:00,
2013-03-02 19:22:00,29.0,25.0,30.12,NNE,19,4.0,6.0,86,0.00,,,0.00,,2013-03-03 00:22:00,
2013-03-02 19:32:00,29.0,26.0,30.12,NE,52,3.0,8.0,87,0.00,,,0.00,,2013-03-03 00:32:00,
2013-03-02 19:42:00,29.0,26.0,30.12,NE,52,3.0,8.0,87,0.00,,,0.00,,2013-03-03 00:42:00,
2013-03-02 19:52:00,29.0,26.0,30.12,NNE,30,0.0,4.0,88,0.00,,,0.00,,2013-03-03 00:52:00,
2013-03-02 20:01:00,29.0,26.0,30.12,NNE,22,0.0,6.0,88,0.00,,,0.00,,2013-03-03 01:01:00,
2013-03-02 20:11:00,29.0,26.0,30.12,NNE,22,0.0,6.0,88,0.00,,,0.00,,2013-03-03 01:11:00,
2013-03-02 20:21:00,29.0,26.0,30.12,North,10,3.0,7.0,87,0.00,,,0.00,,2013-03-03 01:21:00,
2013-03-02 20:31:00,29.0,25.0,30.12,North,355,4.0,7.0,86,0.00,,,0.00,,2013-03-03 01:31:00,
2013-03-02 20:41:00,29.0,25.0,30.12,North,355,4.0,7.0,86,0.00,,,0.00,,2013-03-03 01:41:00,
2013-03-02 20:52:00,29.0,25.0,30.12,NNE,20,2.0,8.0,86,0.00,,,0.00,,2013-03-03 01:52:00,
2013-03-02 21:01:00,29.0,25.0,30.12,NNE,32,3.0,10.0,84,0.00,,,0.00,,2013-03-03 02:01:00,
2013-03-02 21:11:00,29.0,25.0,30.12,NE,36,3.0,8.0,83,0.00,,,0.00,,2013-03-03 02:11:00,
2013-03-02 21:21:00,29.0,25.0,30.12,NE,36,3.0,8.0,83,0.00,,,0.00,,2013-03-03 02:21:00,
2013-03-02 21:31:00,29.0,25.0,30.12,North,360,4.0,7.0,84,0.00,,,0.00,,2013-03-03 02:31:00,
2013-03-02 21:41:00,29.0,25.0,30.12,North,360,4.0,7.0,84,0.00,,,0.00,,2013-03-03 02:41:00,
2013-03-02 21:52:00,29.0,25.0,30.13,NNE,21,4.0,7.0,84,0.00,,,0.00,,2013-03-03 02:52:00,
2013-03-02 22:01:00,29.0,25.0,30.13,NE,36,2.0,8.0,83,0.00,,,0.00,,2013-03-03 03:01:00,
2013-03-02 22:11:00,29.0,25.0,30.13,NE,36,2.0,8.0,83,0.00,,,0.00,,2013-03-03 03:11:00,
2013-03-02 22:21:00,29.0,25.0,30.13,North,5,1.0,9.0,83,0.00,,,0.00,,2013-03-03 03:21:00,
2013-03-02 22:31:00,29.0,25.0,30.13,NNW,346,3.0,7.0,84,0.00,,,0.00,,2013-03-03 03:31:00,
2013-03-02 22:41:00,29.0,25.0,30.13,NNW,346,3.0,7.0,84,0.00,,,0.00,,2013-03-03 03:41:00,
2013-03-02 22:52:00,29.0,25.0,30.13,NE,50,3.0,7.0,83,0.00,,,0.00,,2013-03-03 03:52:00,
2013-03-02 23:01:00,28.0,24.0,30.13,NE,49,3.0,7.0,83,0.00,,,0.00,,2013-03-03 04:01:00,
2013-03-02 23:11:00,28.0,24.0,30.13,NE,49,3.0,7.0,83,0.00,,,0.00,,2013-03-03 04:11:00,
2013-03-02 23:21:00,28.0,24.0,30.13,NNE,23,4.0,8.0,84,0.00,,,0.00,,2013-03-03 04:21:00,
2013-03-02 23:31:00,28.0,24.0,30.13,NNE,29,3.0,8.0,84,0.00,,,0.00,,2013-03-03 04:31:00,
2013-03-02 23:41:00,28.0,24.0,30.13,NNE,29,3.0,8.0,84,0.00,,,0.00,,2013-03-03 04:41:00,
2013-03-02 23:52:00,28.0,24.0,30.13,ENE,64,4.0,10.0,83,0.00,,,0.00,,2013-03-03 04:52:00,